createdAt,value
2016-06-13T00:00:37.094Z,0
2016-06-13T00:01:37.144Z,0
2016-06-13T00:02:37.177Z,0
2016-06-13T00:03:37.258Z,0
2016-06-13T00:04:37.294Z,0
2016-06-13T00:05:37.187Z,0
2016-06-13T00:06:37.362Z,0
2016-06-13T00:07:37.411Z,0
2016-06-13T00:08:37.493Z,0
2016-06-13T00:09:37.527Z,0
2016-06-13T00:10:38.749Z,0
2016-06-13T00:11:37.487Z,0
2016-06-13T00:12:37.662Z,0
2016-06-13T00:13:37.711Z,0
2016-06-13T00:14:37.761Z,0
2016-06-13T00:15:37.889Z,0
2016-06-13T00:16:37.878Z,0
2016-06-13T00:17:38.162Z,0
2016-06-13T00:18:37.945Z,0
2016-06-13T00:19:37.996Z,0
2016-06-13T00:20:38.046Z,0
2016-06-13T00:21:38.080Z,0
2016-06-13T00:22:37.974Z,0
2016-06-13T00:23:38.165Z,0
2016-06-13T00:24:38.245Z,0
2016-06-13T00:25:38.920Z,0
2016-06-13T00:26:38.954Z,0
2016-06-13T00:27:38.379Z,0
2016-06-13T00:28:38.258Z,0
2016-06-13T00:29:38.463Z,0
2016-06-13T00:30:38.513Z,0
2016-06-13T00:31:38.580Z,0
2016-06-13T00:32:38.598Z,0
2016-06-13T00:33:38.508Z,0
2016-06-13T00:34:38.729Z,0
2016-06-13T00:35:38.748Z,0
2016-06-13T00:36:38.798Z,0
2016-06-13T00:37:38.832Z,0
2016-06-13T00:38:38.898Z,0
2016-06-13T00:39:38.777Z,0
2016-06-13T00:40:38.997Z,0
2016-06-13T00:41:39.094Z,0
2016-06-13T00:42:39.083Z,0
2016-06-13T00:43:39.132Z,0
2016-06-13T00:44:39.166Z,0
2016-06-13T00:45:39.217Z,0
2016-06-13T00:46:39.265Z,0
2016-06-13T00:47:39.316Z,0
2016-06-13T00:48:39.366Z,0
2016-06-13T00:49:39.260Z,0
2016-06-13T00:50:39.450Z,0
2016-06-13T00:51:39.516Z,0
2016-06-13T00:52:39.566Z,0
2016-06-13T00:53:39.617Z,0
2016-06-13T00:54:39.634Z,0
2016-06-13T00:55:39.763Z,0
2016-06-13T00:56:39.610Z,0
2016-06-13T00:57:39.785Z,0
2016-06-13T00:58:39.835Z,0
2016-06-13T00:59:39.885Z,0
2016-06-13T01:00:39.934Z,0
2016-06-13T01:01:39.812Z,0
2016-06-13T01:02:40.034Z,0
2016-06-13T01:03:40.068Z,0
2016-06-13T01:04:40.119Z,0
2016-06-13T01:05:40.168Z,0
2016-06-13T01:06:40.202Z,0
2016-06-13T01:07:40.253Z,0
2016-06-13T01:08:40.302Z,0
2016-06-13T01:09:40.352Z,0
2016-06-13T01:10:40.261Z,0
2016-06-13T01:11:40.953Z,0
2016-06-13T01:12:40.175Z,0
2016-06-13T01:13:40.692Z,0
2016-06-13T01:14:40.524Z,0
2016-06-13T01:15:40.465Z,0
2016-06-13T01:16:40.452Z,0
2016-06-13T01:17:40.705Z,0
2016-06-13T01:18:40.724Z,0
2016-06-13T01:19:40.836Z,0
2016-06-13T01:20:40.855Z,0
2016-06-13T01:21:40.921Z,0
2016-06-13T01:22:40.956Z,0
2016-06-13T01:23:41.020Z,0
2016-06-13T01:24:41.054Z,0
2016-06-13T01:25:40.964Z,0
2016-06-13T01:26:41.686Z,0
2016-06-13T01:27:41.189Z,0
2016-06-13T01:28:41.270Z,0
2016-06-13T01:29:41.289Z,0
2016-06-13T01:30:41.355Z,0
2016-06-13T01:31:41.076Z,0
2016-06-13T01:32:41.454Z,0
2016-06-13T01:33:41.193Z,0
2016-06-13T01:34:41.538Z,0
2016-06-13T01:35:41.573Z,0
2016-06-13T01:36:41.624Z,0
2016-06-13T01:37:41.673Z,0
2016-06-13T01:38:41.723Z,0
2016-06-13T01:39:41.772Z,0
2016-06-13T01:40:42.057Z,0
2016-06-13T01:41:42.498Z,0
2016-06-13T01:42:41.923Z,0
2016-06-13T01:43:41.973Z,0
2016-06-13T01:44:42.024Z,0
2016-06-13T01:45:42.057Z,0
2016-06-13T01:46:42.091Z,0
2016-06-13T01:47:42.172Z,0
2016-06-13T01:48:42.206Z,0
2016-06-13T01:49:42.242Z,0
2016-06-13T01:50:42.306Z,0
2016-06-13T01:51:42.356Z,0
2016-06-13T01:52:42.390Z,0
2016-06-13T01:53:42.426Z,0
2016-06-13T01:54:42.506Z,0
2016-06-13T01:55:42.588Z,0
2016-06-13T01:56:42.669Z,0
2016-06-13T01:57:42.625Z,0
2016-06-13T01:58:42.691Z,0
2016-06-13T01:59:42.725Z,0
2016-06-13T02:00:42.776Z,0
2016-06-13T02:01:42.668Z,0
2016-06-13T02:02:42.874Z,0
2016-06-13T02:03:42.925Z,0
2016-06-13T02:04:42.974Z,0
2016-06-13T02:05:42.869Z,0
2016-06-13T02:06:43.059Z,0
2016-06-13T02:07:43.108Z,0
2016-06-13T02:08:43.143Z,0
2016-06-13T02:09:43.053Z,0
2016-06-13T02:10:43.853Z,0
2016-06-13T02:11:43.684Z,0
2016-06-13T02:12:43.359Z,0
2016-06-13T02:13:43.393Z,0
2016-06-13T02:14:43.475Z,0
2016-06-13T02:15:43.493Z,0
2016-06-13T02:16:43.542Z,0
2016-06-13T02:17:43.592Z,0
2016-06-13T02:18:43.659Z,0
2016-06-13T02:19:43.521Z,0
2016-06-13T02:20:43.743Z,0
2016-06-13T02:21:43.793Z,0
2016-06-13T02:22:43.827Z,0
2016-06-13T02:23:43.877Z,0
2016-06-13T02:24:43.911Z,0
2016-06-13T02:25:43.977Z,0
2016-06-13T02:26:44.652Z,0
2016-06-13T02:27:44.076Z,0
2016-06-13T02:28:44.127Z,0
2016-06-13T02:29:44.176Z,0
2016-06-13T02:30:44.211Z,0
2016-06-13T02:31:44.277Z,0
2016-06-13T02:32:44.311Z,0
2016-06-13T02:33:44.360Z,0
2016-06-13T02:34:44.411Z,0
2016-06-13T02:35:44.164Z,0
2016-06-13T02:36:44.511Z,0
2016-06-13T02:37:44.561Z,0
2016-06-13T02:38:44.595Z,0
2016-06-13T02:39:44.660Z,0
2016-06-13T02:40:44.695Z,0
2016-06-13T02:41:44.901Z,0
2016-06-13T02:42:44.795Z,0
2016-06-13T02:43:44.845Z,0
2016-06-13T02:44:44.894Z,0
2016-06-13T02:45:44.929Z,0
2016-06-13T02:46:44.839Z,0
2016-06-13T02:47:45.029Z,0
2016-06-13T02:48:45.078Z,0
2016-06-13T02:49:44.972Z,0
2016-06-13T02:50:45.022Z,0
2016-06-13T02:51:45.213Z,0
2016-06-13T02:52:45.294Z,0
2016-06-13T02:53:45.344Z,0
2016-06-13T02:54:45.395Z,0
2016-06-13T02:55:45.475Z,0
2016-06-13T02:56:45.228Z,0
2016-06-13T02:57:45.513Z,0
2016-06-13T02:58:45.579Z,0
2016-06-13T02:59:45.613Z,0
2016-06-13T03:00:45.677Z,0
2016-06-13T03:01:45.572Z,0
2016-06-13T03:02:45.763Z,0
2016-06-13T03:03:45.812Z,0
2016-06-13T03:04:45.862Z,0
2016-06-13T03:05:45.897Z,0
2016-06-13T03:06:45.946Z,0
2016-06-13T03:07:46.013Z,0
2016-06-13T03:08:46.062Z,0
2016-06-13T03:09:46.096Z,0
2016-06-13T03:10:46.006Z,0
2016-06-13T03:11:46.212Z,0
2016-06-13T03:12:46.261Z,0
2016-06-13T03:13:46.297Z,0
2016-06-13T03:14:46.331Z,0
2016-06-13T03:15:46.427Z,0
2016-06-13T03:16:46.431Z,0
2016-06-13T03:17:46.480Z,0
2016-06-13T03:18:46.562Z,5
2016-06-13T03:19:46.580Z,5
2016-06-13T03:20:46.631Z,5
2016-06-13T03:21:46.680Z,5
2016-06-13T03:22:46.730Z,5
2016-06-13T03:23:46.608Z,5
2016-06-13T03:24:46.831Z,5
2016-06-13T03:25:46.864Z,5
2016-06-13T03:26:47.436Z,5
2016-06-13T03:27:47.027Z,5
2016-06-13T03:28:47.116Z,5
2016-06-13T03:29:47.207Z,5
2016-06-13T03:30:47.282Z,5
2016-06-13T03:31:47.358Z,5
2016-06-13T03:32:47.437Z,10
2016-06-13T03:33:47.502Z,10
2016-06-13T03:34:47.534Z,10
2016-06-13T03:35:47.599Z,10
2016-06-13T03:36:47.674Z,10
2016-06-13T03:37:47.713Z,10
2016-06-13T03:38:47.785Z,5
2016-06-13T03:39:47.824Z,5
2016-06-13T03:40:47.880Z,5
2016-06-13T03:41:48.042Z,5
2016-06-13T03:42:47.984Z,0
2016-06-13T03:43:48.036Z,0
2016-06-13T03:44:48.073Z,0
2016-06-13T03:45:48.124Z,0
2016-06-13T03:46:48.161Z,0
2016-06-13T03:47:48.243Z,0
2016-06-13T03:48:48.261Z,0
2016-06-13T03:49:48.312Z,0
2016-06-13T03:50:48.379Z,0
2016-06-13T03:51:48.414Z,0
2016-06-13T03:52:48.447Z,0
2016-06-13T03:53:48.514Z,0
2016-06-13T03:54:48.563Z,0
2016-06-13T03:55:48.645Z,0
2016-06-13T03:56:49.382Z,5
2016-06-13T03:57:48.541Z,5
2016-06-13T03:58:48.732Z,5
2016-06-13T03:59:48.813Z,5
2016-06-13T04:00:48.863Z,5
2016-06-13T04:01:48.882Z,5
2016-06-13T04:02:48.948Z,5
2016-06-13T04:03:48.825Z,5
2016-06-13T04:04:49.032Z,5
2016-06-13T04:05:49.081Z,5
2016-06-13T04:06:49.148Z,5
2016-06-13T04:07:49.182Z,5
2016-06-13T04:08:49.231Z,5
2016-06-13T04:09:49.250Z,5
2016-06-13T04:10:49.331Z,5
2016-06-13T04:11:49.366Z,5
2016-06-13T04:12:49.431Z,5
2016-06-13T04:13:49.450Z,5
2016-06-13T04:14:49.500Z,5
2016-06-13T04:15:49.566Z,5
2016-06-13T04:16:49.599Z,5
2016-06-13T04:17:49.634Z,5
2016-06-13T04:18:49.685Z,5
2016-06-13T04:19:49.438Z,5
2016-06-13T04:20:49.783Z,5
2016-06-13T04:21:49.833Z,5
2016-06-13T04:22:49.883Z,5
2016-06-13T04:23:49.934Z,5
2016-06-13T04:24:49.999Z,5
2016-06-13T04:25:50.033Z,10
2016-06-13T04:26:50.412Z,10
2016-06-13T04:27:50.118Z,15
2016-06-13T04:28:50.168Z,15
2016-06-13T04:29:50.202Z,20
2016-06-13T04:30:50.284Z,20
2016-06-13T04:31:50.302Z,15
2016-06-13T04:32:50.352Z,15
2016-06-13T04:33:50.401Z,25
2016-06-13T04:34:50.451Z,25
2016-06-13T04:35:50.502Z,25
2016-06-13T04:36:50.551Z,25
2016-06-13T04:37:50.446Z,25
2016-06-13T04:38:50.636Z,20
2016-06-13T04:39:50.686Z,20
2016-06-13T04:40:50.752Z,25
2016-06-13T04:41:51.255Z,30
2016-06-13T04:42:51.133Z,35
2016-06-13T04:43:50.730Z,45
2016-06-13T04:44:50.935Z,50
2016-06-13T04:45:50.970Z,55
2016-06-13T04:46:51.052Z,55
2016-06-13T04:47:51.069Z,60
2016-06-13T04:48:50.947Z,65
2016-06-13T04:49:51.169Z,65
2016-06-13T04:50:51.220Z,65
2016-06-13T04:51:51.254Z,70
2016-06-13T04:52:51.320Z,75
2016-06-13T04:53:51.354Z,80
2016-06-13T04:54:51.404Z,80
2016-06-13T04:55:51.532Z,100
2016-06-13T04:56:52.755Z,115
2016-06-13T04:57:52.148Z,110
2016-06-13T04:58:51.588Z,105
2016-06-13T04:59:51.653Z,95
2016-06-13T05:00:51.689Z,85
2016-06-13T05:01:51.738Z,70
2016-06-13T05:02:51.773Z,60
2016-06-13T05:03:51.838Z,50
2016-06-13T05:04:51.887Z,35
2016-06-13T05:05:51.922Z,40
2016-06-13T05:06:51.972Z,50
2016-06-13T05:07:52.022Z,50
2016-06-13T05:08:52.072Z,50
2016-06-13T05:09:52.122Z,40
2016-06-13T05:10:52.172Z,35
2016-06-13T05:11:53.565Z,40
2016-06-13T05:12:52.943Z,40
2016-06-13T05:13:52.135Z,35
2016-06-13T05:14:52.341Z,35
2016-06-13T05:15:52.249Z,35
2016-06-13T05:16:52.441Z,35
2016-06-13T05:17:52.334Z,40
2016-06-13T05:18:52.540Z,40
2016-06-13T05:19:52.590Z,40
2016-06-13T05:20:52.656Z,35
2016-06-13T05:21:52.674Z,30
2016-06-13T05:22:52.724Z,30
2016-06-13T05:23:52.805Z,30
2016-06-13T05:24:52.824Z,35
2016-06-13T05:25:52.875Z,35
2016-06-13T05:26:52.940Z,35
2016-06-13T05:27:53.552Z,35
2016-06-13T05:28:53.024Z,40
2016-06-13T05:29:53.090Z,45
2016-06-13T05:30:53.124Z,50
2016-06-13T05:31:53.159Z,45
2016-06-13T05:32:53.224Z,45
2016-06-13T05:33:53.258Z,45
2016-06-13T05:34:53.136Z,45
2016-06-13T05:35:53.374Z,40
2016-06-13T05:36:53.408Z,40
2016-06-13T05:37:53.442Z,40
2016-06-13T05:38:53.492Z,35
2016-06-13T05:39:53.542Z,35
2016-06-13T05:40:53.592Z,30
2016-06-13T05:41:54.705Z,30
2016-06-13T05:42:53.833Z,30
2016-06-13T05:43:53.727Z,35
2016-06-13T05:44:53.777Z,40
2016-06-13T05:45:53.827Z,45
2016-06-13T05:46:53.876Z,45
2016-06-13T05:47:53.926Z,50
2016-06-13T05:48:53.961Z,60
2016-06-13T05:49:54.010Z,60
2016-06-13T05:50:54.076Z,65
2016-06-13T05:51:54.110Z,70
2016-06-13T05:52:54.144Z,75
2016-06-13T05:53:54.211Z,80
2016-06-13T05:54:54.261Z,90
2016-06-13T05:55:54.341Z,90
2016-06-13T05:56:54.548Z,85
2016-06-13T05:57:54.629Z,75
2016-06-13T05:58:54.445Z,85
2016-06-13T05:59:54.323Z,90
2016-06-13T06:00:54.512Z,85
2016-06-13T06:01:54.579Z,85
2016-06-13T06:02:54.488Z,80
2016-06-13T06:03:54.663Z,75
2016-06-13T06:04:54.713Z,70
2016-06-13T06:05:54.779Z,70
2016-06-13T06:06:54.812Z,75
2016-06-13T06:07:54.878Z,100
2016-06-13T06:08:54.912Z,110
2016-06-13T06:09:54.947Z,115
2016-06-13T06:10:55.029Z,115
2016-06-13T06:11:55.046Z,120
2016-06-13T06:12:54.956Z,115
2016-06-13T06:13:55.147Z,120
2016-06-13T06:14:55.197Z,135
2016-06-13T06:15:55.247Z,125
2016-06-13T06:16:55.312Z,120
2016-06-13T06:17:55.346Z,115
2016-06-13T06:18:55.381Z,125
2016-06-13T06:19:55.446Z,135
2016-06-13T06:20:55.480Z,130
2016-06-13T06:21:55.530Z,125
2016-06-13T06:22:55.581Z,130
2016-06-13T06:23:55.459Z,140
2016-06-13T06:24:55.680Z,150
2016-06-13T06:25:55.731Z,155
2016-06-13T06:26:56.937Z,155
2016-06-13T06:27:55.893Z,155
2016-06-13T06:28:55.865Z,150
2016-06-13T06:29:55.915Z,145
2016-06-13T06:30:55.965Z,145
2016-06-13T06:31:56.014Z,140
2016-06-13T06:32:56.096Z,145
2016-06-13T06:33:56.115Z,140
2016-06-13T06:34:56.149Z,130
2016-06-13T06:35:56.199Z,115
2016-06-13T06:36:56.248Z,115
2016-06-13T06:37:56.298Z,125
2016-06-13T06:38:56.349Z,125
2016-06-13T06:39:56.399Z,120
2016-06-13T06:40:56.292Z,135
2016-06-13T06:41:56.936Z,135
2016-06-13T06:42:56.361Z,145
2016-06-13T06:43:56.583Z,150
2016-06-13T06:44:56.492Z,150
2016-06-13T06:45:56.698Z,150
2016-06-13T06:46:56.718Z,145
2016-06-13T06:47:56.767Z,130
2016-06-13T06:48:56.817Z,120
2016-06-13T06:49:56.882Z,115
2016-06-13T06:50:56.948Z,120
2016-06-13T06:51:57.170Z,125
2016-06-13T06:52:57.033Z,130
2016-06-13T06:53:57.067Z,145
2016-06-13T06:54:57.116Z,150
2016-06-13T06:55:57.213Z,150
2016-06-13T06:56:57.076Z,150
2016-06-13T06:57:57.126Z,160
2016-06-13T06:58:57.301Z,150
2016-06-13T06:59:57.366Z,160
2016-06-13T07:00:57.433Z,165
2016-06-13T07:01:57.450Z,175
2016-06-13T07:02:57.516Z,180
2016-06-13T07:03:57.551Z,180
2016-06-13T07:04:57.601Z,190
2016-06-13T07:05:57.651Z,190
2016-06-13T07:06:57.685Z,170
2016-06-13T07:07:57.750Z,160
2016-06-13T07:08:57.800Z,145
2016-06-13T07:09:57.835Z,150
2016-06-13T07:10:57.900Z,150
2016-06-13T07:11:58.106Z,150
2016-06-13T07:12:57.844Z,155
2016-06-13T07:13:57.894Z,150
2016-06-13T07:14:58.100Z,145
2016-06-13T07:15:58.135Z,135
2016-06-13T07:16:58.185Z,135
2016-06-13T07:17:58.235Z,130
2016-06-13T07:18:58.269Z,125
2016-06-13T07:19:58.318Z,125
2016-06-13T07:20:58.228Z,115
2016-06-13T07:21:58.418Z,105
2016-06-13T07:22:58.468Z,95
2016-06-13T07:23:58.534Z,90
2016-06-13T07:24:58.569Z,85
2016-06-13T07:25:58.602Z,80
2016-06-13T07:26:58.668Z,75
2016-06-13T07:27:59.266Z,75
2016-06-13T07:28:58.628Z,75
2016-06-13T07:29:58.521Z,70
2016-06-13T07:30:58.852Z,65
2016-06-13T07:31:58.902Z,65
2016-06-13T07:32:58.952Z,60
2016-06-13T07:33:58.986Z,65
2016-06-13T07:34:59.068Z,65
2016-06-13T07:35:59.102Z,70
2016-06-13T07:36:58.980Z,70
2016-06-13T07:37:59.202Z,65
2016-06-13T07:38:59.252Z,70
2016-06-13T07:39:59.302Z,75
2016-06-13T07:40:59.337Z,80
2016-06-13T07:41:59.386Z,80
2016-06-13T07:42:59.749Z,85
2016-06-13T07:43:59.486Z,80
2016-06-13T07:44:59.520Z,70
2016-06-13T07:45:59.585Z,55
2016-06-13T07:46:59.464Z,55
2016-06-13T07:47:59.514Z,45
2016-06-13T07:48:59.720Z,40
2016-06-13T07:49:59.786Z,40
2016-06-13T07:50:59.648Z,50
2016-06-13T07:51:59.557Z,60
2016-06-13T07:52:59.921Z,60
2016-06-13T07:53:59.970Z,55
2016-06-13T07:55:00.004Z,55
2016-06-13T07:56:00.102Z,55
2016-06-13T07:57:00.120Z,55
2016-06-13T07:58:00.044Z,60
2016-06-13T07:59:00.204Z,60
2016-06-13T08:00:00.254Z,65
2016-06-13T08:01:00.320Z,65
2016-06-13T08:02:00.338Z,70
2016-06-13T08:03:00.388Z,70
2016-06-13T08:04:00.454Z,70
2016-06-13T08:05:00.472Z,75
2016-06-13T08:06:00.538Z,70
2016-06-13T08:07:00.603Z,70
2016-06-13T08:08:00.622Z,70
2016-06-13T08:09:00.376Z,70
2016-06-13T08:10:00.565Z,70
2016-06-13T08:11:00.756Z,75
2016-06-13T08:12:00.822Z,85
2016-06-13T08:13:01.232Z,90
2016-06-13T08:14:00.906Z,100
2016-06-13T08:15:00.988Z,110
2016-06-13T08:16:01.005Z,125
2016-06-13T08:17:01.041Z,135
2016-06-13T08:18:01.122Z,150
2016-06-13T08:19:01.156Z,160
2016-06-13T08:20:01.221Z,170
2016-06-13T08:21:01.241Z,175
2016-06-13T08:22:01.274Z,185
2016-06-13T08:23:01.356Z,200
2016-06-13T08:24:01.405Z,220
2016-06-13T08:25:01.283Z,230
2016-06-13T08:26:01.506Z,235
2016-06-13T08:27:01.540Z,240
2016-06-13T08:28:02.449Z,250
2016-06-13T08:29:01.640Z,250
2016-06-13T08:30:01.674Z,250
2016-06-13T08:31:01.740Z,250
2016-06-13T08:32:01.633Z,245
2016-06-13T08:33:01.824Z,240
2016-06-13T08:34:01.889Z,225
2016-06-13T08:35:01.924Z,220
2016-06-13T08:36:01.975Z,205
2016-06-13T08:37:02.024Z,200
2016-06-13T08:38:02.074Z,200
2016-06-13T08:39:02.108Z,195
2016-06-13T08:40:02.174Z,190
2016-06-13T08:41:02.224Z,185
2016-06-13T08:42:02.101Z,185
2016-06-13T08:43:02.167Z,190
2016-06-13T08:44:02.358Z,190
2016-06-13T08:45:02.408Z,190
2016-06-13T08:46:02.301Z,185
2016-06-13T08:47:02.508Z,180
2016-06-13T08:48:02.542Z,180
2016-06-13T08:49:02.608Z,180
2016-06-13T08:50:02.501Z,190
2016-06-13T08:51:02.707Z,190
2016-06-13T08:52:02.742Z,195
2016-06-13T08:53:02.792Z,205
2016-06-13T08:54:02.825Z,220
2016-06-13T08:55:02.908Z,240
2016-06-13T08:56:03.004Z,255
2016-06-13T08:57:02.820Z,265
2016-06-13T08:58:03.760Z,280
2016-06-13T08:59:03.091Z,295
2016-06-13T09:00:03.126Z,310
2016-06-13T09:01:03.192Z,315
2016-06-13T09:02:03.241Z,325
2016-06-13T09:03:03.119Z,325
2016-06-13T09:04:03.325Z,335
2016-06-13T09:05:03.235Z,345
2016-06-13T09:06:03.425Z,350
2016-06-13T09:07:03.476Z,355
2016-06-13T09:08:03.526Z,355
2016-06-13T09:09:03.576Z,355
2016-06-13T09:10:03.625Z,345
2016-06-13T09:11:03.674Z,330
2016-06-13T09:12:03.725Z,305
2016-06-13T09:13:04.384Z,285
2016-06-13T09:14:03.809Z,270
2016-06-13T09:15:03.859Z,260
2016-06-13T09:16:03.926Z,260
2016-06-13T09:17:03.959Z,265
2016-06-13T09:18:04.009Z,270
2016-06-13T09:19:04.075Z,270
2016-06-13T09:20:04.110Z,265
2016-06-13T09:21:04.143Z,270
2016-06-13T09:22:04.209Z,265
2016-06-13T09:23:04.103Z,265
2016-06-13T09:24:04.308Z,285
2016-06-13T09:25:04.359Z,280
2016-06-13T09:26:04.409Z,295
2016-06-13T09:27:04.459Z,305
2016-06-13T09:28:04.399Z,310
2016-06-13T09:29:04.544Z,335
2016-06-13T09:30:04.608Z,340
2016-06-13T09:31:04.658Z,340
2016-06-13T09:32:04.693Z,340
2016-06-13T09:33:04.759Z,335
2016-06-13T09:34:04.653Z,335
2016-06-13T09:35:04.843Z,330
2016-06-13T09:36:04.908Z,325
2016-06-13T09:37:04.927Z,320
2016-06-13T09:38:05.071Z,320
2016-06-13T09:39:05.043Z,320
2016-06-13T09:40:05.092Z,320
2016-06-13T09:41:05.142Z,320
2016-06-13T09:42:05.192Z,320
2016-06-13T09:43:05.243Z,320
2016-06-13T09:44:05.309Z,320
2016-06-13T09:45:05.342Z,320
2016-06-13T09:46:05.392Z,320
2016-06-13T09:47:05.427Z,315
2016-06-13T09:48:05.492Z,315
2016-06-13T09:49:05.369Z,310
2016-06-13T09:50:05.577Z,310
2016-06-13T09:51:05.626Z,310
2016-06-13T09:52:05.520Z,315
2016-06-13T09:53:05.726Z,325
2016-06-13T09:54:05.760Z,335
2016-06-13T09:55:05.811Z,345
2016-06-13T09:56:05.782Z,360
2016-06-13T09:57:05.926Z,370
2016-06-13T09:58:05.992Z,365
2016-06-13T09:59:06.447Z,370
2016-06-13T10:00:06.075Z,370
2016-06-13T10:01:06.125Z,375
2016-06-13T10:02:06.176Z,380
2016-06-13T10:03:06.242Z,385
2016-06-13T10:04:06.290Z,390
2016-06-13T10:05:06.201Z,395
2016-06-13T10:06:06.376Z,395
2016-06-13T10:07:06.300Z,400
2016-06-13T10:08:06.507Z,400
2016-06-13T10:09:06.370Z,400
2016-06-13T10:10:06.591Z,400
2016-06-13T10:11:06.656Z,400
2016-06-13T10:12:06.691Z,400
2016-06-13T10:13:06.304Z,400
2016-06-13T10:14:07.087Z,400
2016-06-13T10:15:06.840Z,400
2016-06-13T10:16:06.907Z,400
2016-06-13T10:17:06.925Z,410
2016-06-13T10:18:07.053Z,410
2016-06-13T10:19:07.055Z,415
2016-06-13T10:20:07.106Z,420
2016-06-13T10:21:07.140Z,420
2016-06-13T10:22:07.268Z,420
2016-06-13T10:23:07.240Z,415
2016-06-13T10:24:07.275Z,415
2016-06-13T10:25:07.434Z,410
2016-06-13T10:26:07.405Z,415
2016-06-13T10:27:07.440Z,410
2016-06-13T10:28:07.725Z,420
2016-06-13T10:29:07.618Z,440
2016-06-13T10:30:07.589Z,465
2016-06-13T10:31:07.624Z,480
2016-06-13T10:32:07.690Z,500
2016-06-13T10:33:07.740Z,525
2016-06-13T10:34:07.774Z,545
2016-06-13T10:35:07.825Z,555
2016-06-13T10:36:07.889Z,580
2016-06-13T10:37:07.924Z,595
2016-06-13T10:38:07.974Z,605
2016-06-13T10:39:08.023Z,600
2016-06-13T10:40:08.089Z,595
2016-06-13T10:41:08.124Z,595
2016-06-13T10:42:08.190Z,610
2016-06-13T10:43:08.802Z,625
2016-06-13T10:44:08.148Z,650
2016-06-13T10:45:08.167Z,675
2016-06-13T10:46:08.389Z,710
2016-06-13T10:47:08.423Z,745
2016-06-13T10:48:08.520Z,770
2016-06-13T10:49:08.570Z,785
2016-06-13T10:50:08.604Z,815
2016-06-13T10:51:08.623Z,855
2016-06-13T10:52:08.735Z,865
2016-06-13T10:53:08.613Z,865
2016-06-13T10:54:08.804Z,865
2016-06-13T10:55:08.823Z,785
2016-06-13T10:56:08.983Z,885
2016-06-13T10:57:08.954Z,950
2016-06-13T10:58:08.926Z,995
2016-06-13T10:59:09.492Z,985
2016-06-13T11:00:09.120Z,995
2016-06-13T11:01:09.154Z,900
2016-06-13T11:02:09.204Z,750
2016-06-13T11:03:09.269Z,680
2016-06-13T11:04:09.304Z,695
2016-06-13T11:05:09.369Z,685
2016-06-13T11:06:09.404Z,685
2016-06-13T11:07:09.485Z,665
2016-06-13T11:08:09.520Z,655
2016-06-13T11:09:09.570Z,655
2016-06-13T11:10:09.619Z,640
2016-06-13T11:11:09.685Z,605
2016-06-13T11:12:09.563Z,615
2016-06-13T11:13:10.738Z,630
2016-06-13T11:14:10.475Z,665
2016-06-13T11:15:09.900Z,695
2016-06-13T11:16:09.778Z,720
2016-06-13T11:17:10.000Z,745
2016-06-13T11:18:10.034Z,795
2016-06-13T11:19:10.100Z,855
2016-06-13T11:20:10.182Z,890
2016-06-13T11:21:10.200Z,905
2016-06-13T11:22:10.094Z,905
2016-06-13T11:23:10.299Z,935
2016-06-13T11:24:10.381Z,940
2016-06-13T11:25:10.431Z,890
2016-06-13T11:26:10.528Z,810
2016-06-13T11:27:10.500Z,810
2016-06-13T11:28:11.456Z,830
2016-06-13T11:29:11.302Z,865
2016-06-13T11:30:12.196Z,840
2016-06-13T11:31:10.730Z,920
2016-06-13T11:32:10.765Z,910
2016-06-13T11:33:10.814Z,805
2016-06-13T11:34:10.881Z,755
2016-06-13T11:35:10.931Z,720
2016-06-13T11:36:10.981Z,745
2016-06-13T11:37:11.046Z,675
2016-06-13T11:38:11.080Z,470
2016-06-13T11:39:11.146Z,325
2016-06-13T11:40:11.196Z,280
2016-06-13T11:41:11.261Z,245
2016-06-13T11:42:11.124Z,230
2016-06-13T11:43:11.627Z,215
2016-06-13T11:44:11.803Z,205
2016-06-13T11:45:11.462Z,205
2016-06-13T11:46:11.495Z,215
2016-06-13T11:47:11.561Z,230
2016-06-13T11:48:11.642Z,235
2016-06-13T11:49:11.660Z,240
2016-06-13T11:50:11.554Z,240
2016-06-13T11:51:11.777Z,220
2016-06-13T11:52:11.811Z,190
2016-06-13T11:53:11.861Z,165
2016-06-13T11:54:11.942Z,145
2016-06-13T11:55:11.976Z,135
2016-06-13T11:56:12.089Z,125
2016-06-13T11:57:12.061Z,125
2016-06-13T11:58:12.001Z,135
2016-06-13T11:59:12.894Z,155
2016-06-13T12:00:12.069Z,175
2016-06-13T12:01:12.276Z,200
2016-06-13T12:02:12.342Z,230
2016-06-13T12:03:12.375Z,260
2016-06-13T12:04:12.410Z,290
2016-06-13T12:05:12.491Z,330
2016-06-13T12:06:12.525Z,365
2016-06-13T12:07:12.560Z,400
2016-06-13T12:08:12.626Z,420
2016-06-13T12:09:12.675Z,430
2016-06-13T12:10:12.725Z,440
2016-06-13T12:11:12.619Z,445
2016-06-13T12:12:12.684Z,450
2016-06-13T12:13:12.719Z,445
2016-06-13T12:14:14.550Z,440
2016-06-13T12:15:12.976Z,435
2016-06-13T12:16:13.009Z,420
2016-06-13T12:17:13.074Z,400
2016-06-13T12:18:13.110Z,385
2016-06-13T12:19:13.160Z,395
2016-06-13T12:20:13.209Z,390
2016-06-13T12:21:13.275Z,385
2016-06-13T12:22:13.309Z,380
2016-06-13T12:23:13.375Z,375
2016-06-13T12:24:13.409Z,365
2016-06-13T12:25:13.444Z,365
2016-06-13T12:26:13.352Z,360
2016-06-13T12:27:13.574Z,355
2016-06-13T12:28:13.438Z,355
2016-06-13T12:29:13.550Z,350
2016-06-13T12:30:13.709Z,345
2016-06-13T12:31:13.742Z,345
2016-06-13T12:32:13.809Z,345
2016-06-13T12:33:13.890Z,345
2016-06-13T12:34:13.981Z,345
2016-06-13T12:35:14.087Z,345
2016-06-13T12:36:14.005Z,350
2016-06-13T12:37:14.080Z,350
2016-06-13T12:38:14.322Z,355
2016-06-13T12:39:14.371Z,355
2016-06-13T12:40:14.436Z,360
2016-06-13T12:41:14.517Z,360
2016-06-13T12:42:14.566Z,365
2016-06-13T12:43:15.107Z,365
2016-06-13T12:44:15.584Z,365
2016-06-13T12:45:14.748Z,365
2016-06-13T12:46:14.788Z,370
2016-06-13T12:47:14.702Z,365
2016-06-13T12:48:14.739Z,355
2016-06-13T12:49:14.963Z,340
2016-06-13T12:50:15.015Z,365
2016-06-13T12:51:15.051Z,365
2016-06-13T12:52:15.103Z,370
2016-06-13T12:53:15.154Z,370
2016-06-13T12:54:15.158Z,355
2016-06-13T12:55:15.240Z,335
2016-06-13T12:56:15.352Z,310
2016-06-13T12:57:15.325Z,275
2016-06-13T12:58:15.360Z,245
2016-06-13T12:59:15.973Z,240
2016-06-13T13:00:15.477Z,225
2016-06-13T13:01:15.370Z,215
2016-06-13T13:02:15.577Z,215
2016-06-13T13:03:15.626Z,225
2016-06-13T13:04:15.365Z,235
2016-06-13T13:05:15.711Z,230
2016-06-13T13:06:15.777Z,235
2016-06-13T13:07:15.827Z,245
2016-06-13T13:08:15.706Z,255
2016-06-13T13:09:15.926Z,255
2016-06-13T13:10:16.196Z,255
2016-06-13T13:11:16.011Z,270
2016-06-13T13:12:16.780Z,295
2016-06-13T13:13:16.142Z,315
2016-06-13T13:14:16.161Z,315
2016-06-13T13:15:16.227Z,315
2016-06-13T13:16:16.261Z,320
2016-06-13T13:17:16.311Z,335
2016-06-13T13:18:16.376Z,355
2016-06-13T13:19:16.411Z,365
2016-06-13T13:20:16.304Z,370
2016-06-13T13:21:16.526Z,375
2016-06-13T13:22:16.404Z,380
2016-06-13T13:23:16.626Z,385
2016-06-13T13:24:16.660Z,385
2016-06-13T13:25:16.726Z,390
2016-06-13T13:26:16.776Z,395
2016-06-13T13:27:16.810Z,405
2016-06-13T13:28:16.860Z,415
2016-06-13T13:29:17.582Z,425
2016-06-13T13:30:16.820Z,435
2016-06-13T13:31:16.994Z,450
2016-06-13T13:32:17.076Z,465
2016-06-13T13:33:17.094Z,475
2016-06-13T13:34:17.128Z,495
2016-06-13T13:35:17.226Z,505
2016-06-13T13:36:17.228Z,505
2016-06-13T13:37:17.294Z,515
2016-06-13T13:38:17.345Z,525
2016-06-13T13:39:17.410Z,535
2016-06-13T13:40:17.460Z,545
2016-06-13T13:41:17.479Z,550
2016-06-13T13:42:17.607Z,555
2016-06-13T13:43:17.469Z,555
2016-06-13T13:44:17.550Z,565
2016-06-13T13:45:18.319Z,575
2016-06-13T13:46:17.759Z,575
2016-06-13T13:47:17.809Z,580
2016-06-13T13:48:17.671Z,590
2016-06-13T13:49:17.924Z,595
2016-06-13T13:50:17.943Z,605
2016-06-13T13:51:18.056Z,620
2016-06-13T13:52:18.075Z,630
2016-06-13T13:53:18.094Z,645
2016-06-13T13:54:18.144Z,655
2016-06-13T13:55:18.208Z,675
2016-06-13T13:56:18.274Z,685
2016-06-13T13:57:18.121Z,700
2016-06-13T13:58:18.359Z,725
2016-06-13T13:59:18.580Z,755
2016-06-13T14:00:18.427Z,765
2016-06-13T14:01:18.508Z,770
2016-06-13T14:02:18.543Z,765
2016-06-13T14:03:18.593Z,765
2016-06-13T14:04:18.675Z,750
2016-06-13T14:05:18.723Z,750
2016-06-13T14:06:18.758Z,750
2016-06-13T14:07:18.809Z,745
2016-06-13T14:08:18.843Z,755
2016-06-13T14:09:18.752Z,795
2016-06-13T14:10:18.974Z,815